sensor_id;sensor_type;location;lat;lon;timestamp;P1;durP1;ratioP1;P2;durP2;ratioP2
20721;SDS011;10522;52.198;9.890;2023-06-14T00:01:17;5.23;;;2.90;;
20721;SDS011;10522;52.198;9.890;2023-06-14T00:03:45;4.33;;;3.20;;
20721;SDS011;10522;52.198;9.890;2023-06-14T00:06:12;3.93;;;2.87;;
20721;SDS011;10522;52.198;9.890;2023-06-14T00:08:38;9.00;;;3.57;;
20721;SDS011;10522;52.198;9.890;2023-06-14T00:11:05;11.80;;;3.43;;
20721;SDS011;10522;52.198;9.890;2023-06-14T00:13:30;6.00;;;3.27;;
20721;SDS011;10522;52.198;9.890;2023-06-14T00:15:56;6.60;;;3.17;;
20721;SDS011;10522;52.198;9.890;2023-06-14T00:18:22;6.40;;;3.50;;
20721;SDS011;10522;52.198;9.890;2023-06-14T00:20:54;7.67;;;3.40;;
20721;SDS011;10522;52.198;9.890;2023-06-14T00:23:20;9.83;;;3.00;;
20721;SDS011;10522;52.198;9.890;2023-06-14T00:25:46;7.00;;;3.20;;
20721;SDS011;10522;52.198;9.890;2023-06-14T00:28:12;6.37;;;3.43;;
20721;SDS011;10522;52.198;9.890;2023-06-14T00:30:38;4.03;;;2.90;;
20721;SDS011;10522;52.198;9.890;2023-06-14T00:33:04;7.27;;;3.33;;
20721;SDS011;10522;52.198;9.890;2023-06-14T00:35:30;3.73;;;3.00;;
20721;SDS011;10522;52.198;9.890;2023-06-14T00:37:55;5.80;;;3.17;;
20721;SDS011;10522;52.198;9.890;2023-06-14T00:40:21;5.93;;;3.23;;
20721;SDS011;10522;52.198;9.890;2023-06-14T00:42:47;4.53;;;3.20;;
20721;SDS011;10522;52.198;9.890;2023-06-14T00:45:13;6.23;;;2.93;;
20721;SDS011;10522;52.198;9.890;2023-06-14T00:47:39;7.27;;;3.20;;
20721;SDS011;10522;52.198;9.890;2023-06-14T00:50:07;5.83;;;2.90;;
20721;SDS011;10522;52.198;9.890;2023-06-14T00:52:34;4.27;;;3.03;;
20721;SDS011;10522;52.198;9.890;2023-06-14T00:54:59;7.73;;;3.50;;
20721;SDS011;10522;52.198;9.890;2023-06-14T00:57:26;4.30;;;3.00;;
20721;SDS011;10522;52.198;9.890;2023-06-14T00:59:52;4.73;;;3.43;;
20721;SDS011;10522;52.198;9.890;2023-06-14T01:02:18;8.57;;;3.70;;
20721;SDS011;10522;52.198;9.890;2023-06-14T01:04:45;4.40;;;3.20;;
20721;SDS011;10522;52.198;9.890;2023-06-14T01:12:36;8.53;;;3.10;;
20721;SDS011;10522;52.198;9.890;2023-06-14T01:15:02;6.10;;;3.10;;
20721;SDS011;10522;52.198;9.890;2023-06-14T01:17:29;6.00;;;3.47;;
20721;SDS011;10522;52.198;9.890;2023-06-14T01:19:56;7.10;;;3.07;;
20721;SDS011;10522;52.198;9.890;2023-06-14T01:22:27;4.40;;;3.40;;
20721;SDS011;10522;52.198;9.890;2023-06-14T01:24:53;6.43;;;3.57;;
20721;SDS011;10522;52.198;9.890;2023-06-14T01:27:23;4.10;;;3.17;;
20721;SDS011;10522;52.198;9.890;2023-06-14T01:29:53;8.53;;;3.27;;
20721;SDS011;10522;52.198;9.890;2023-06-14T01:32:21;5.20;;;3.47;;
20721;SDS011;10522;52.198;9.890;2023-06-14T01:34:51;5.23;;;3.37;;
20721;SDS011;10522;52.198;9.890;2023-06-14T01:37:17;6.90;;;3.40;;
20721;SDS011;10522;52.198;9.890;2023-06-14T01:39:44;5.97;;;3.47;;
20721;SDS011;10522;52.198;9.890;2023-06-14T01:42:11;4.57;;;3.20;;
20721;SDS011;10522;52.198;9.890;2023-06-14T01:44:38;5.57;;;3.20;;
20721;SDS011;10522;52.198;9.890;2023-06-14T01:47:06;5.70;;;3.40;;
20721;SDS011;10522;52.198;9.890;2023-06-14T01:49:33;4.53;;;3.20;;
20721;SDS011;10522;52.198;9.890;2023-06-14T01:52:00;6.07;;;4.00;;
20721;SDS011;10522;52.198;9.890;2023-06-14T01:54:26;6.83;;;3.60;;
20721;SDS011;10522;52.198;9.890;2023-06-14T01:56:52;7.80;;;3.50;;
20721;SDS011;10522;52.198;9.890;2023-06-14T01:59:18;7.83;;;3.57;;
20721;SDS011;10522;52.198;9.890;2023-06-14T02:01:43;7.40;;;3.40;;
20721;SDS011;10522;52.198;9.890;2023-06-14T02:04:11;5.37;;;3.53;;
20721;SDS011;10522;52.198;9.890;2023-06-14T02:06:36;6.27;;;2.87;;
20721;SDS011;10522;52.198;9.890;2023-06-14T02:09:02;5.93;;;3.20;;
20721;SDS011;10522;52.198;9.890;2023-06-14T02:11:28;4.47;;;3.50;;
20721;SDS011;10522;52.198;9.890;2023-06-14T02:13:54;4.57;;;3.57;;
20721;SDS011;10522;52.198;9.890;2023-06-14T02:16:20;8.10;;;3.60;;
20721;SDS011;10522;52.198;9.890;2023-06-14T02:18:46;5.77;;;3.20;;
20721;SDS011;10522;52.198;9.890;2023-06-14T02:21:13;9.13;;;4.03;;
20721;SDS011;10522;52.198;9.890;2023-06-14T02:23:39;4.57;;;3.63;;
20721;SDS011;10522;52.198;9.890;2023-06-14T02:26:05;5.83;;;3.50;;
20721;SDS011;10522;52.198;9.890;2023-06-14T02:28:31;7.07;;;4.00;;
20721;SDS011;10522;52.198;9.890;2023-06-14T02:30:56;4.50;;;3.90;;
20721;SDS011;10522;52.198;9.890;2023-06-14T02:33:22;6.47;;;3.40;;
20721;SDS011;10522;52.198;9.890;2023-06-14T02:35:47;4.73;;;3.70;;
20721;SDS011;10522;52.198;9.890;2023-06-14T02:38:13;8.60;;;3.90;;
20721;SDS011;10522;52.198;9.890;2023-06-14T02:40:39;6.90;;;3.70;;
20721;SDS011;10522;52.198;9.890;2023-06-14T02:43:07;6.17;;;3.50;;
20721;SDS011;10522;52.198;9.890;2023-06-14T02:45:33;6.37;;;3.73;;
20721;SDS011;10522;52.198;9.890;2023-06-14T02:47:58;4.13;;;3.50;;
20721;SDS011;10522;52.198;9.890;2023-06-14T02:50:24;4.47;;;3.70;;
20721;SDS011;10522;52.198;9.890;2023-06-14T02:52:49;6.00;;;3.77;;
20721;SDS011;10522;52.198;9.890;2023-06-14T02:55:15;5.73;;;3.83;;
20721;SDS011;10522;52.198;9.890;2023-06-14T02:57:41;5.97;;;3.50;;
20721;SDS011;10522;52.198;9.890;2023-06-14T03:00:06;9.67;;;3.80;;
20721;SDS011;10522;52.198;9.890;2023-06-14T03:02:37;9.00;;;3.83;;
20721;SDS011;10522;52.198;9.890;2023-06-14T03:05:03;4.70;;;3.77;;
20721;SDS011;10522;52.198;9.890;2023-06-14T03:07:31;4.47;;;3.20;;
20721;SDS011;10522;52.198;9.890;2023-06-14T03:09:57;6.80;;;3.93;;
20721;SDS011;10522;52.198;9.890;2023-06-14T03:12:23;7.53;;;3.57;;
20721;SDS011;10522;52.198;9.890;2023-06-14T03:14:49;7.13;;;3.93;;
20721;SDS011;10522;52.198;9.890;2023-06-14T03:17:15;6.83;;;3.90;;
20721;SDS011;10522;52.198;9.890;2023-06-14T03:19:42;7.57;;;4.33;;
20721;SDS011;10522;52.198;9.890;2023-06-14T03:22:08;6.17;;;4.50;;
20721;SDS011;10522;52.198;9.890;2023-06-14T03:24:36;9.57;;;4.03;;
20721;SDS011;10522;52.198;9.890;2023-06-14T03:27:02;6.57;;;3.63;;
20721;SDS011;10522;52.198;9.890;2023-06-14T03:29:28;4.30;;;3.33;;
20721;SDS011;10522;52.198;9.890;2023-06-14T03:31:57;6.07;;;4.20;;
20721;SDS011;10522;52.198;9.890;2023-06-14T03:34:24;5.17;;;3.53;;
20721;SDS011;10522;52.198;9.890;2023-06-14T03:36:50;7.80;;;3.67;;
20721;SDS011;10522;52.198;9.890;2023-06-14T03:39:16;6.67;;;3.70;;
20721;SDS011;10522;52.198;9.890;2023-06-14T03:41:41;9.97;;;3.53;;
20721;SDS011;10522;52.198;9.890;2023-06-14T03:44:07;5.27;;;3.27;;
20721;SDS011;10522;52.198;9.890;2023-06-14T03:46:32;6.20;;;3.77;;
20721;SDS011;10522;52.198;9.890;2023-06-14T03:48:58;6.47;;;3.97;;
20721;SDS011;10522;52.198;9.890;2023-06-14T03:51:23;4.13;;;3.50;;
20721;SDS011;10522;52.198;9.890;2023-06-14T03:53:50;5.03;;;4.43;;
20721;SDS011;10522;52.198;9.890;2023-06-14T03:56:15;4.87;;;3.63;;
20721;SDS011;10522;52.198;9.890;2023-06-14T03:58:41;6.77;;;3.47;;
20721;SDS011;10522;52.198;9.890;2023-06-14T04:01:06;4.90;;;3.60;;
20721;SDS011;10522;52.198;9.890;2023-06-14T04:03:32;6.10;;;3.53;;
20721;SDS011;10522;52.198;9.890;2023-06-14T04:05:58;5.00;;;3.67;;
20721;SDS011;10522;52.198;9.890;2023-06-14T04:08:24;6.63;;;3.90;;
20721;SDS011;10522;52.198;9.890;2023-06-14T04:10:50;6.53;;;3.97;;
20721;SDS011;10522;52.198;9.890;2023-06-14T04:13:16;4.73;;;3.87;;
20721;SDS011;10522;52.198;9.890;2023-06-14T04:15:42;5.10;;;4.30;;
20721;SDS011;10522;52.198;9.890;2023-06-14T04:18:08;5.50;;;3.30;;
20721;SDS011;10522;52.198;9.890;2023-06-14T04:20:34;6.40;;;3.27;;
20721;SDS011;10522;52.198;9.890;2023-06-14T04:23:11;5.67;;;3.40;;
20721;SDS011;10522;52.198;9.890;2023-06-14T04:25:42;4.33;;;2.90;;
20721;SDS011;10522;52.198;9.890;2023-06-14T04:28:10;4.63;;;3.23;;
20721;SDS011;10522;52.198;9.890;2023-06-14T04:30:43;4.57;;;3.57;;
20721;SDS011;10522;52.198;9.890;2023-06-14T04:33:13;9.30;;;4.00;;
20721;SDS011;10522;52.198;9.890;2023-06-14T04:35:39;5.03;;;2.93;;
20721;SDS011;10522;52.198;9.890;2023-06-14T04:38:05;4.23;;;3.07;;
20721;SDS011;10522;52.198;9.890;2023-06-14T04:40:34;11.00;;;3.50;;
20721;SDS011;10522;52.198;9.890;2023-06-14T04:43:01;3.83;;;2.93;;
20721;SDS011;10522;52.198;9.890;2023-06-14T04:45:29;3.60;;;2.63;;
20721;SDS011;10522;52.198;9.890;2023-06-14T04:47:56;5.50;;;3.40;;
20721;SDS011;10522;52.198;9.890;2023-06-14T04:50:24;6.87;;;3.50;;
20721;SDS011;10522;52.198;9.890;2023-06-14T04:52:50;8.67;;;2.90;;
20721;SDS011;10522;52.198;9.890;2023-06-14T04:55:16;6.57;;;2.90;;
20721;SDS011;10522;52.198;9.890;2023-06-14T04:57:44;7.40;;;3.40;;
20721;SDS011;10522;52.198;9.890;2023-06-14T05:00:10;3.90;;;2.80;;
20721;SDS011;10522;52.198;9.890;2023-06-14T05:02:36;7.43;;;2.63;;
20721;SDS011;10522;52.198;9.890;2023-06-14T05:05:02;5.90;;;2.87;;
20721;SDS011;10522;52.198;9.890;2023-06-14T05:07:31;4.93;;;2.93;;
20721;SDS011;10522;52.198;9.890;2023-06-14T05:09:58;7.00;;;2.87;;
20721;SDS011;10522;52.198;9.890;2023-06-14T05:12:24;4.90;;;2.97;;
20721;SDS011;10522;52.198;9.890;2023-06-14T05:14:50;8.00;;;2.80;;
20721;SDS011;10522;52.198;9.890;2023-06-14T05:17:16;3.40;;;2.67;;
20721;SDS011;10522;52.198;9.890;2023-06-14T05:19:42;4.10;;;2.50;;
20721;SDS011;10522;52.198;9.890;2023-06-14T05:22:08;4.60;;;3.00;;
20721;SDS011;10522;52.198;9.890;2023-06-14T05:24:33;3.33;;;2.57;;
20721;SDS011;10522;52.198;9.890;2023-06-14T05:26:59;5.63;;;3.00;;
20721;SDS011;10522;52.198;9.890;2023-06-14T05:29:25;2.63;;;2.40;;
20721;SDS011;10522;52.198;9.890;2023-06-14T05:31:52;4.63;;;2.60;;
20721;SDS011;10522;52.198;9.890;2023-06-14T05:34:18;5.80;;;2.10;;
20721;SDS011;10522;52.198;9.890;2023-06-14T05:36:43;4.70;;;2.30;;
20721;SDS011;10522;52.198;9.890;2023-06-14T05:39:09;4.73;;;2.33;;
20721;SDS011;10522;52.198;9.890;2023-06-14T05:41:35;7.60;;;2.70;;
20721;SDS011;10522;52.198;9.890;2023-06-14T05:44:01;5.37;;;2.90;;
20721;SDS011;10522;52.198;9.890;2023-06-14T05:46:26;3.03;;;2.60;;
20721;SDS011;10522;52.198;9.890;2023-06-14T05:48:53;2.83;;;1.80;;
20721;SDS011;10522;52.198;9.890;2023-06-14T05:51:20;3.83;;;2.67;;
20721;SDS011;10522;52.198;9.890;2023-06-14T05:53:46;4.33;;;2.63;;
20721;SDS011;10522;52.198;9.890;2023-06-14T05:56:13;6.43;;;2.90;;
20721;SDS011;10522;52.198;9.890;2023-06-14T05:58:40;5.33;;;3.00;;
20721;SDS011;10522;52.198;9.890;2023-06-14T06:01:06;13.13;;;2.67;;
20721;SDS011;10522;52.198;9.890;2023-06-14T06:03:32;6.83;;;3.00;;
20721;SDS011;10522;52.198;9.890;2023-06-14T06:05:57;3.90;;;2.70;;
20721;SDS011;10522;52.198;9.890;2023-06-14T06:08:23;4.53;;;3.10;;
20721;SDS011;10522;52.198;9.890;2023-06-14T06:10:49;9.07;;;3.33;;
20721;SDS011;10522;52.198;9.890;2023-06-14T06:13:15;6.20;;;3.10;;
20721;SDS011;10522;52.198;9.890;2023-06-14T06:15:41;4.10;;;3.10;;
20721;SDS011;10522;52.198;9.890;2023-06-14T06:18:06;7.70;;;3.33;;
20721;SDS011;10522;52.198;9.890;2023-06-14T06:20:32;7.57;;;3.80;;
20721;SDS011;10522;52.198;9.890;2023-06-14T06:22:58;9.70;;;3.30;;
20721;SDS011;10522;52.198;9.890;2023-06-14T06:25:24;9.20;;;3.57;;
20721;SDS011;10522;52.198;9.890;2023-06-14T06:27:52;8.57;;;3.57;;
20721;SDS011;10522;52.198;9.890;2023-06-14T06:30:24;5.63;;;3.10;;
20721;SDS011;10522;52.198;9.890;2023-06-14T06:32:50;7.87;;;3.23;;
20721;SDS011;10522;52.198;9.890;2023-06-14T06:35:16;8.60;;;3.60;;
20721;SDS011;10522;52.198;9.890;2023-06-14T06:37:42;7.80;;;3.30;;
20721;SDS011;10522;52.198;9.890;2023-06-14T06:40:08;4.43;;;3.40;;
20721;SDS011;10522;52.198;9.890;2023-06-14T06:42:34;5.70;;;3.10;;
20721;SDS011;10522;52.198;9.890;2023-06-14T06:45:00;8.07;;;4.00;;
20721;SDS011;10522;52.198;9.890;2023-06-14T06:47:26;9.37;;;3.40;;
20721;SDS011;10522;52.198;9.890;2023-06-14T06:49:51;5.00;;;2.97;;
20721;SDS011;10522;52.198;9.890;2023-06-14T06:52:17;6.00;;;3.20;;
20721;SDS011;10522;52.198;9.890;2023-06-14T06:54:42;5.60;;;3.40;;
20721;SDS011;10522;52.198;9.890;2023-06-14T06:57:08;6.17;;;3.10;;
20721;SDS011;10522;52.198;9.890;2023-06-14T06:59:35;6.93;;;3.10;;
20721;SDS011;10522;52.198;9.890;2023-06-14T07:02:01;9.20;;;3.33;;
20721;SDS011;10522;52.198;9.890;2023-06-14T07:04:27;4.57;;;3.30;;
20721;SDS011;10522;52.198;9.890;2023-06-14T07:06:53;5.17;;;2.70;;
20721;SDS011;10522;52.198;9.890;2023-06-14T07:09:18;3.80;;;3.27;;
20721;SDS011;10522;52.198;9.890;2023-06-14T07:11:45;4.27;;;2.57;;
20721;SDS011;10522;52.198;9.890;2023-06-14T07:14:12;3.67;;;2.67;;
20721;SDS011;10522;52.198;9.890;2023-06-14T07:16:38;3.50;;;2.07;;
20721;SDS011;10522;52.198;9.890;2023-06-14T07:19:03;5.77;;;2.50;;
20721;SDS011;10522;52.198;9.890;2023-06-14T07:21:29;2.73;;;2.33;;
20721;SDS011;10522;52.198;9.890;2023-06-14T07:23:55;3.77;;;2.30;;
20721;SDS011;10522;52.198;9.890;2023-06-14T07:26:21;2.87;;;2.37;;
20721;SDS011;10522;52.198;9.890;2023-06-14T07:28:47;2.90;;;2.00;;
20721;SDS011;10522;52.198;9.890;2023-06-14T07:31:14;5.23;;;2.10;;
20721;SDS011;10522;52.198;9.890;2023-06-14T07:33:40;4.30;;;2.60;;
20721;SDS011;10522;52.198;9.890;2023-06-14T07:36:07;3.63;;;2.20;;
20721;SDS011;10522;52.198;9.890;2023-06-14T07:38:33;6.27;;;2.60;;
20721;SDS011;10522;52.198;9.890;2023-06-14T07:40:59;4.63;;;2.47;;
20721;SDS011;10522;52.198;9.890;2023-06-14T07:43:25;3.53;;;2.97;;
20721;SDS011;10522;52.198;9.890;2023-06-14T07:45:51;2.53;;;2.27;;
20721;SDS011;10522;52.198;9.890;2023-06-14T07:48:16;6.60;;;2.53;;
20721;SDS011;10522;52.198;9.890;2023-06-14T07:50:43;3.80;;;2.50;;
20721;SDS011;10522;52.198;9.890;2023-06-14T07:53:09;34.80;;;5.90;;
20721;SDS011;10522;52.198;9.890;2023-06-14T07:55:34;16.60;;;3.43;;
20721;SDS011;10522;52.198;9.890;2023-06-14T07:58:02;4.13;;;2.60;;
20721;SDS011;10522;52.198;9.890;2023-06-14T08:00:28;4.40;;;2.90;;
20721;SDS011;10522;52.198;9.890;2023-06-14T08:02:53;4.23;;;2.73;;
20721;SDS011;10522;52.198;9.890;2023-06-14T08:05:23;9.13;;;3.10;;
20721;SDS011;10522;52.198;9.890;2023-06-14T08:07:52;5.43;;;2.23;;
20721;SDS011;10522;52.198;9.890;2023-06-14T08:10:18;6.40;;;2.13;;
20721;SDS011;10522;52.198;9.890;2023-06-14T08:12:44;4.43;;;2.30;;
20721;SDS011;10522;52.198;9.890;2023-06-14T08:15:09;3.03;;;2.30;;
20721;SDS011;10522;52.198;9.890;2023-06-14T08:17:35;5.80;;;2.23;;
20721;SDS011;10522;52.198;9.890;2023-06-14T08:20:01;7.00;;;2.70;;
20721;SDS011;10522;52.198;9.890;2023-06-14T08:22:29;4.40;;;2.40;;
20721;SDS011;10522;52.198;9.890;2023-06-14T08:24:58;2.57;;;2.10;;
20721;SDS011;10522;52.198;9.890;2023-06-14T08:27:24;2.17;;;1.97;;
20721;SDS011;10522;52.198;9.890;2023-06-14T08:29:50;2.93;;;2.23;;
20721;SDS011;10522;52.198;9.890;2023-06-14T08:32:16;10.60;;;2.37;;
20721;SDS011;10522;52.198;9.890;2023-06-14T08:34:42;2.90;;;2.20;;
20721;SDS011;10522;52.198;9.890;2023-06-14T08:37:07;4.70;;;2.43;;
20721;SDS011;10522;52.198;9.890;2023-06-14T08:39:33;2.50;;;2.30;;
20721;SDS011;10522;52.198;9.890;2023-06-14T08:41:58;2.87;;;2.50;;
20721;SDS011;10522;52.198;9.890;2023-06-14T08:44:28;2.93;;;2.60;;
20721;SDS011;10522;52.198;9.890;2023-06-14T08:46:55;2.20;;;1.83;;
20721;SDS011;10522;52.198;9.890;2023-06-14T08:49:24;3.20;;;2.03;;
20721;SDS011;10522;52.198;9.890;2023-06-14T08:51:52;4.23;;;2.10;;
20721;SDS011;10522;52.198;9.890;2023-06-14T08:54:27;4.13;;;2.20;;
20721;SDS011;10522;52.198;9.890;2023-06-14T08:56:59;10.40;;;2.30;;
20721;SDS011;10522;52.198;9.890;2023-06-14T08:59:28;2.17;;;1.97;;
20721;SDS011;10522;52.198;9.890;2023-06-14T09:01:56;2.93;;;2.23;;
20721;SDS011;10522;52.198;9.890;2023-06-14T09:04:22;3.93;;;2.07;;
20721;SDS011;10522;52.198;9.890;2023-06-14T09:06:49;4.07;;;2.13;;
20721;SDS011;10522;52.198;9.890;2023-06-14T09:09:19;3.33;;;1.93;;
20721;SDS011;10522;52.198;9.890;2023-06-14T09:11:49;2.20;;;2.00;;
20721;SDS011;10522;52.198;9.890;2023-06-14T09:14:15;3.63;;;2.13;;
20721;SDS011;10522;52.198;9.890;2023-06-14T09:16:41;3.13;;;1.93;;
20721;SDS011;10522;52.198;9.890;2023-06-14T09:19:06;5.27;;;2.23;;
20721;SDS011;10522;52.198;9.890;2023-06-14T09:21:35;2.20;;;1.90;;
20721;SDS011;10522;52.198;9.890;2023-06-14T09:24:02;4.77;;;1.90;;
20721;SDS011;10522;52.198;9.890;2023-06-14T09:26:29;2.53;;;2.03;;
20721;SDS011;10522;52.198;9.890;2023-06-14T09:28:55;2.90;;;2.00;;
20721;SDS011;10522;52.198;9.890;2023-06-14T09:31:21;2.60;;;2.03;;
20721;SDS011;10522;52.198;9.890;2023-06-14T09:33:48;2.30;;;2.10;;
20721;SDS011;10522;52.198;9.890;2023-06-14T09:36:15;4.37;;;2.13;;
20721;SDS011;10522;52.198;9.890;2023-06-14T09:38:43;2.10;;;1.90;;
20721;SDS011;10522;52.198;9.890;2023-06-14T09:41:17;5.53;;;2.40;;
20721;SDS011;10522;52.198;9.890;2023-06-14T09:43:43;2.03;;;1.83;;
20721;SDS011;10522;52.198;9.890;2023-06-14T09:46:10;4.17;;;2.20;;
20721;SDS011;10522;52.198;9.890;2023-06-14T09:48:36;4.00;;;2.10;;
20721;SDS011;10522;52.198;9.890;2023-06-14T09:51:02;5.70;;;2.30;;
20721;SDS011;10522;52.198;9.890;2023-06-14T09:53:29;5.10;;;2.23;;
20721;SDS011;10522;52.198;9.890;2023-06-14T09:55:55;7.57;;;2.10;;
20721;SDS011;10522;52.198;9.890;2023-06-14T09:58:23;4.47;;;2.07;;
20721;SDS011;10522;52.198;9.890;2023-06-14T10:00:53;4.23;;;2.00;;
20721;SDS011;10522;52.198;9.890;2023-06-14T10:03:25;3.07;;;1.90;;
20721;SDS011;10522;52.198;9.890;2023-06-14T10:05:53;3.27;;;2.03;;
20721;SDS011;10522;52.198;9.890;2023-06-14T10:08:27;2.70;;;1.97;;
20721;SDS011;10522;52.198;9.890;2023-06-14T10:10:56;3.10;;;2.00;;
20721;SDS011;10522;52.198;9.890;2023-06-14T10:13:21;2.33;;;2.13;;
20721;SDS011;10522;52.198;9.890;2023-06-14T10:16:07;4.93;;;2.20;;
20721;SDS011;10522;52.198;9.890;2023-06-14T10:18:45;1.90;;;1.80;;
20721;SDS011;10522;52.198;9.890;2023-06-14T10:21:45;3.63;;;2.07;;
20721;SDS011;10522;52.198;9.890;2023-06-14T10:24:22;2.03;;;1.87;;
20721;SDS011;10522;52.198;9.890;2023-06-14T10:26:57;3.03;;;2.33;;
20721;SDS011;10522;52.198;9.890;2023-06-14T10:29:24;2.13;;;1.93;;
20721;SDS011;10522;52.198;9.890;2023-06-14T10:31:56;2.87;;;2.20;;
20721;SDS011;10522;52.198;9.890;2023-06-14T10:34:27;2.43;;;2.23;;
20721;SDS011;10522;52.198;9.890;2023-06-14T10:39:41;2.00;;;1.80;;
20721;SDS011;10522;52.198;9.890;2023-06-14T10:42:12;3.87;;;2.53;;
20721;SDS011;10522;52.198;9.890;2023-06-14T10:47:06;7.87;;;2.70;;
20721;SDS011;10522;52.198;9.890;2023-06-14T10:49:38;6.40;;;2.90;;
20721;SDS011;10522;52.198;9.890;2023-06-14T10:52:14;4.53;;;2.37;;
20721;SDS011;10522;52.198;9.890;2023-06-14T10:55:01;4.13;;;2.20;;
20721;SDS011;10522;52.198;9.890;2023-06-14T10:57:31;3.03;;;2.00;;
20721;SDS011;10522;52.198;9.890;2023-06-14T11:00:02;5.90;;;2.30;;
20721;SDS011;10522;52.198;9.890;2023-06-14T11:05:10;2.53;;;2.33;;
20721;SDS011;10522;52.198;9.890;2023-06-14T11:10:40;3.77;;;2.53;;
20721;SDS011;10522;52.198;9.890;2023-06-14T11:13:08;2.53;;;2.30;;
20721;SDS011;10522;52.198;9.890;2023-06-14T11:15:34;6.33;;;2.80;;
20721;SDS011;10522;52.198;9.890;2023-06-14T11:18:05;3.77;;;2.60;;
20721;SDS011;10522;52.198;9.890;2023-06-14T11:20:32;5.60;;;2.47;;
20721;SDS011;10522;52.198;9.890;2023-06-14T11:23:00;4.23;;;2.60;;
20721;SDS011;10522;52.198;9.890;2023-06-14T11:25:26;4.50;;;2.83;;
20721;SDS011;10522;52.198;9.890;2023-06-14T11:27:56;3.50;;;2.30;;
20721;SDS011;10522;52.198;9.890;2023-06-14T11:30:22;7.07;;;3.50;;
20721;SDS011;10522;52.198;9.890;2023-06-14T11:32:49;4.77;;;2.97;;
20721;SDS011;10522;52.198;9.890;2023-06-14T11:35:16;6.13;;;3.10;;
20721;SDS011;10522;52.198;9.890;2023-06-14T11:37:46;3.83;;;3.00;;
20721;SDS011;10522;52.198;9.890;2023-06-14T11:40:12;9.40;;;3.40;;
20721;SDS011;10522;52.198;9.890;2023-06-14T11:42:39;8.40;;;3.60;;
20721;SDS011;10522;52.198;9.890;2023-06-14T11:45:09;8.67;;;2.63;;
20721;SDS011;10522;52.198;9.890;2023-06-14T11:47:36;5.23;;;2.80;;
20721;SDS011;10522;52.198;9.890;2023-06-14T11:50:04;6.47;;;3.13;;
20721;SDS011;10522;52.198;9.890;2023-06-14T11:52:31;4.37;;;2.53;;
20721;SDS011;10522;52.198;9.890;2023-06-14T11:54:57;2.83;;;2.60;;
20721;SDS011;10522;52.198;9.890;2023-06-14T11:57:23;6.70;;;3.23;;
20721;SDS011;10522;52.198;9.890;2023-06-14T11:59:49;7.03;;;3.03;;
20721;SDS011;10522;52.198;9.890;2023-06-14T12:02:15;3.43;;;2.80;;
20721;SDS011;10522;52.198;9.890;2023-06-14T12:04:42;8.50;;;3.47;;
20721;SDS011;10522;52.198;9.890;2023-06-14T12:07:11;6.10;;;2.90;;
20721;SDS011;10522;52.198;9.890;2023-06-14T12:12:24;7.57;;;3.27;;
20721;SDS011;10522;52.198;9.890;2023-06-14T12:14:50;4.90;;;3.40;;
20721;SDS011;10522;52.198;9.890;2023-06-14T12:17:16;4.73;;;2.70;;
20721;SDS011;10522;52.198;9.890;2023-06-14T12:19:43;3.70;;;3.00;;
20721;SDS011;10522;52.198;9.890;2023-06-14T12:22:10;4.13;;;3.20;;
20721;SDS011;10522;52.198;9.890;2023-06-14T12:24:36;7.30;;;3.43;;
20721;SDS011;10522;52.198;9.890;2023-06-14T12:27:03;4.03;;;3.07;;
20721;SDS011;10522;52.198;9.890;2023-06-14T12:29:29;4.73;;;3.07;;
20721;SDS011;10522;52.198;9.890;2023-06-14T12:31:55;7.23;;;3.57;;
20721;SDS011;10522;52.198;9.890;2023-06-14T12:34:25;5.70;;;3.10;;
20721;SDS011;10522;52.198;9.890;2023-06-14T12:36:52;5.00;;;3.40;;
20721;SDS011;10522;52.198;9.890;2023-06-14T12:39:20;4.80;;;3.23;;
20721;SDS011;10522;52.198;9.890;2023-06-14T12:41:46;5.27;;;3.27;;
20721;SDS011;10522;52.198;9.890;2023-06-14T12:44:12;6.37;;;3.43;;
20721;SDS011;10522;52.198;9.890;2023-06-14T12:46:39;9.07;;;3.43;;
20721;SDS011;10522;52.198;9.890;2023-06-14T12:49:05;5.33;;;3.27;;
20721;SDS011;10522;52.198;9.890;2023-06-14T12:51:32;7.80;;;3.57;;
20721;SDS011;10522;52.198;9.890;2023-06-14T12:53:58;8.27;;;3.40;;
20721;SDS011;10522;52.198;9.890;2023-06-14T12:56:24;7.33;;;3.40;;
20721;SDS011;10522;52.198;9.890;2023-06-14T12:58:49;8.60;;;3.60;;
20721;SDS011;10522;52.198;9.890;2023-06-14T13:01:15;6.17;;;3.40;;
20721;SDS011;10522;52.198;9.890;2023-06-14T13:03:40;7.00;;;3.60;;
20721;SDS011;10522;52.198;9.890;2023-06-14T13:06:06;8.27;;;3.20;;
20721;SDS011;10522;52.198;9.890;2023-06-14T13:08:32;9.67;;;3.90;;
20721;SDS011;10522;52.198;9.890;2023-06-14T13:10:57;5.47;;;3.83;;
20721;SDS011;10522;52.198;9.890;2023-06-14T13:13:23;13.67;;;4.00;;
20721;SDS011;10522;52.198;9.890;2023-06-14T13:15:48;13.47;;;3.97;;
20721;SDS011;10522;52.198;9.890;2023-06-14T13:18:14;6.37;;;3.30;;
20721;SDS011;10522;52.198;9.890;2023-06-14T13:20:41;8.93;;;3.93;;
20721;SDS011;10522;52.198;9.890;2023-06-14T13:23:07;9.60;;;4.00;;
20721;SDS011;10522;52.198;9.890;2023-06-14T13:25:33;5.77;;;3.93;;
20721;SDS011;10522;52.198;9.890;2023-06-14T13:27:59;5.43;;;3.87;;
20721;SDS011;10522;52.198;9.890;2023-06-14T13:30:25;10.73;;;4.17;;
20721;SDS011;10522;52.198;9.890;2023-06-14T13:32:51;8.73;;;4.27;;
20721;SDS011;10522;52.198;9.890;2023-06-14T13:35:17;8.47;;;3.77;;
20721;SDS011;10522;52.198;9.890;2023-06-14T13:37:44;9.00;;;4.27;;
20721;SDS011;10522;52.198;9.890;2023-06-14T13:40:10;6.77;;;3.73;;
20721;SDS011;10522;52.198;9.890;2023-06-14T13:42:36;7.57;;;3.67;;
20721;SDS011;10522;52.198;9.890;2023-06-14T13:45:05;6.47;;;3.57;;
20721;SDS011;10522;52.198;9.890;2023-06-14T13:47:34;10.37;;;4.50;;
20721;SDS011;10522;52.198;9.890;2023-06-14T13:50:17;9.63;;;3.97;;
20721;SDS011;10522;52.198;9.890;2023-06-14T13:52:55;6.50;;;3.70;;
20721;SDS011;10522;52.198;9.890;2023-06-14T13:55:22;7.47;;;3.90;;
20721;SDS011;10522;52.198;9.890;2023-06-14T13:57:52;11.87;;;4.03;;
20721;SDS011;10522;52.198;9.890;2023-06-14T14:00:26;3.63;;;3.30;;
20721;SDS011;10522;52.198;9.890;2023-06-14T14:02:52;8.17;;;4.13;;
20721;SDS011;10522;52.198;9.890;2023-06-14T14:05:22;4.03;;;3.60;;
20721;SDS011;10522;52.198;9.890;2023-06-14T14:07:57;8.83;;;3.90;;
20721;SDS011;10522;52.198;9.890;2023-06-14T14:10:26;6.40;;;3.60;;
20721;SDS011;10522;52.198;9.890;2023-06-14T14:12:52;6.60;;;3.40;;
20721;SDS011;10522;52.198;9.890;2023-06-14T14:15:19;6.30;;;3.93;;
20721;SDS011;10522;52.198;9.890;2023-06-14T14:17:45;7.93;;;3.70;;
20721;SDS011;10522;52.198;9.890;2023-06-14T14:20:12;11.57;;;4.90;;
20721;SDS011;10522;52.198;9.890;2023-06-14T14:22:40;10.23;;;3.97;;
20721;SDS011;10522;52.198;9.890;2023-06-14T14:25:09;5.97;;;3.47;;
20721;SDS011;10522;52.198;9.890;2023-06-14T14:27:35;4.57;;;3.97;;
20721;SDS011;10522;52.198;9.890;2023-06-14T14:30:01;6.63;;;3.70;;
20721;SDS011;10522;52.198;9.890;2023-06-14T14:32:28;8.53;;;3.53;;
20721;SDS011;10522;52.198;9.890;2023-06-14T14:34:53;6.67;;;3.47;;
20721;SDS011;10522;52.198;9.890;2023-06-14T14:37:19;7.07;;;4.07;;
20721;SDS011;10522;52.198;9.890;2023-06-14T14:39:44;9.07;;;4.03;;
20721;SDS011;10522;52.198;9.890;2023-06-14T14:42:11;6.00;;;3.73;;
20721;SDS011;10522;52.198;9.890;2023-06-14T14:44:37;3.90;;;3.50;;
20721;SDS011;10522;52.198;9.890;2023-06-14T14:47:03;7.57;;;4.03;;
20721;SDS011;10522;52.198;9.890;2023-06-14T14:49:30;7.03;;;3.90;;
20721;SDS011;10522;52.198;9.890;2023-06-14T14:51:56;6.80;;;4.03;;
20721;SDS011;10522;52.198;9.890;2023-06-14T14:54:22;9.10;;;3.93;;
20721;SDS011;10522;52.198;9.890;2023-06-14T14:56:48;9.50;;;4.47;;
20721;SDS011;10522;52.198;9.890;2023-06-14T14:59:14;4.77;;;3.87;;
20721;SDS011;10522;52.198;9.890;2023-06-14T15:01:40;7.43;;;4.20;;
20721;SDS011;10522;52.198;9.890;2023-06-14T15:04:05;6.83;;;4.33;;
20721;SDS011;10522;52.198;9.890;2023-06-14T15:06:31;5.20;;;3.90;;